SKPE

Details ICAO SKPE (PEI)
Name MATECANA
Region Colombia
Timezone America/Bogota (UTC-5.0)
Plans Departing 56
Arriving 49
Stats Elevation 4,416 ft / 1,346 m (AMSL)
Location 4.812673° -75.739518°
Runways 1
Magnetic Variation 6.279° W
Sunrise 2018-05-22 10:50:19 UTC / 2018-05-22 05:50:19 Local
Sunset 2018-05-22 23:11:49 UTC / 2018-05-22 18:11:49 Local
Advertisement - Login to hide

Runways

ID Width Length Bearing (true) Bearing (mag) Surface Threshold Offset Overrun Length
08 148 ft / 45 m 6,628 ft / 2,020 m 72.24° 78.52° Asphalt 0 ft / 0 m 0 ft / 0 m
26 148 ft / 45 m 6,628 ft / 2,020 m 252.24° 258.52° Asphalt 0 ft / 0 m 0 ft / 0 m

Map

Weather


0- 5 10 15 20 25 30 35+ Temperature / ° C

Clouds and Precipitation
Forecast for 2018-05-22 18:00 UTC. Updated 3 hours ago

Ground ~20,000 ft ~40,000 ft Winds

METAR

SKPE 222000Z 01003KT 9999 SCT015TCU SCT080 25/19 A2998 RMK TCU NE/E/SE

TAF

Not found

Frequencies

Tower 118.70 MHz TWR
Approach 120.70 MHz PEREIRA APP
Warning: Do not use this data for real-world aviation or navigation. No guarantee of current accuracy is given.